sensor_id;sensor_type;location;lat;lon;timestamp;P1;durP1;ratioP1;P2;durP2;ratioP2
20653;SDS011;21083;50.898;4.902;2023-11-21T00:01:05;66.97;;;27.10;;
20653;SDS011;21083;50.898;4.902;2023-11-21T00:03:35;59.90;;;26.10;;
20653;SDS011;21083;50.898;4.902;2023-11-21T00:06:02;73.05;;;28.80;;
20653;SDS011;21083;50.898;4.902;2023-11-21T00:08:29;61.80;;;28.33;;
20653;SDS011;21083;50.898;4.902;2023-11-21T00:10:56;61.20;;;27.48;;
20653;SDS011;21083;50.898;4.902;2023-11-21T00:13:25;58.40;;;26.67;;
20653;SDS011;21083;50.898;4.902;2023-11-21T00:15:52;62.65;;;27.80;;
20653;SDS011;21083;50.898;4.902;2023-11-21T00:18:20;64.43;;;27.77;;
20653;SDS011;21083;50.898;4.902;2023-11-21T00:20:48;63.05;;;28.10;;
20653;SDS011;21083;50.898;4.902;2023-11-21T00:23:15;64.00;;;28.80;;
20653;SDS011;21083;50.898;4.902;2023-11-21T00:25:43;67.15;;;28.33;;
20653;SDS011;21083;50.898;4.902;2023-11-21T00:28:10;69.25;;;30.92;;
20653;SDS011;21083;50.898;4.902;2023-11-21T00:30:37;64.70;;;29.75;;
20653;SDS011;21083;50.898;4.902;2023-11-21T00:33:03;70.32;;;30.05;;
20653;SDS011;21083;50.898;4.902;2023-11-21T00:35:30;66.28;;;30.27;;
20653;SDS011;21083;50.898;4.902;2023-11-21T00:37:58;76.35;;;30.25;;
20653;SDS011;21083;50.898;4.902;2023-11-21T00:40:25;69.93;;;29.98;;
20653;SDS011;21083;50.898;4.902;2023-11-21T00:42:52;75.90;;;30.58;;
20653;SDS011;21083;50.898;4.902;2023-11-21T00:45:19;63.53;;;30.02;;
20653;SDS011;21083;50.898;4.902;2023-11-21T00:47:46;68.13;;;30.45;;
20653;SDS011;21083;50.898;4.902;2023-11-21T00:50:13;64.20;;;29.45;;
20653;SDS011;21083;50.898;4.902;2023-11-21T00:52:40;63.63;;;28.08;;
20653;SDS011;21083;50.898;4.902;2023-11-21T00:55:09;60.17;;;27.58;;
20653;SDS011;21083;50.898;4.902;2023-11-21T00:57:37;63.60;;;28.27;;
20653;SDS011;21083;50.898;4.902;2023-11-21T01:00:04;66.43;;;28.63;;
20653;SDS011;21083;50.898;4.902;2023-11-21T01:02:34;68.45;;;29.60;;
20653;SDS011;21083;50.898;4.902;2023-11-21T01:05:01;66.70;;;27.83;;
20653;SDS011;21083;50.898;4.902;2023-11-21T01:07:28;62.45;;;26.13;;
20653;SDS011;21083;50.898;4.902;2023-11-21T01:09:55;65.28;;;27.67;;
20653;SDS011;21083;50.898;4.902;2023-11-21T01:12:24;69.32;;;27.88;;
20653;SDS011;21083;50.898;4.902;2023-11-21T01:14:51;59.60;;;25.95;;
20653;SDS011;21083;50.898;4.902;2023-11-21T01:17:18;63.60;;;27.60;;
20653;SDS011;21083;50.898;4.902;2023-11-21T01:19:45;61.88;;;27.17;;
20653;SDS011;21083;50.898;4.902;2023-11-21T01:22:11;76.28;;;27.23;;
20653;SDS011;21083;50.898;4.902;2023-11-21T01:24:38;69.35;;;27.63;;
20653;SDS011;21083;50.898;4.902;2023-11-21T01:27:05;54.88;;;25.35;;
20653;SDS011;21083;50.898;4.902;2023-11-21T01:29:33;62.70;;;26.52;;
20653;SDS011;21083;50.898;4.902;2023-11-21T01:32:01;132.48;;;26.17;;
20653;SDS011;21083;50.898;4.902;2023-11-21T01:34:29;88.70;;;26.77;;
20653;SDS011;21083;50.898;4.902;2023-11-21T01:36:56;60.20;;;25.08;;
20653;SDS011;21083;50.898;4.902;2023-11-21T01:39:23;58.53;;;25.98;;
20653;SDS011;21083;50.898;4.902;2023-11-21T01:41:51;101.57;;;25.70;;
20653;SDS011;21083;50.898;4.902;2023-11-21T01:44:18;63.45;;;24.15;;
20653;SDS011;21083;50.898;4.902;2023-11-21T01:46:47;60.28;;;24.98;;
20653;SDS011;21083;50.898;4.902;2023-11-21T01:49:14;55.90;;;25.70;;
20653;SDS011;21083;50.898;4.902;2023-11-21T01:51:43;59.95;;;23.85;;
20653;SDS011;21083;50.898;4.902;2023-11-21T01:54:14;61.28;;;24.75;;
20653;SDS011;21083;50.898;4.902;2023-11-21T01:56:42;55.50;;;24.13;;
20653;SDS011;21083;50.898;4.902;2023-11-21T01:59:10;62.70;;;24.90;;
20653;SDS011;21083;50.898;4.902;2023-11-21T02:01:38;52.60;;;23.67;;
20653;SDS011;21083;50.898;4.902;2023-11-21T02:04:07;147.02;;;25.08;;
20653;SDS011;21083;50.898;4.902;2023-11-21T02:06:34;60.40;;;21.77;;
20653;SDS011;21083;50.898;4.902;2023-11-21T02:09:01;125.80;;;25.52;;
20653;SDS011;21083;50.898;4.902;2023-11-21T02:11:29;135.80;;;26.00;;
20653;SDS011;21083;50.898;4.902;2023-11-21T02:14:00;83.32;;;24.58;;
20653;SDS011;21083;50.898;4.902;2023-11-21T02:16:27;212.88;;;30.95;;
20653;SDS011;21083;50.898;4.902;2023-11-21T02:18:56;58.50;;;22.05;;
20653;SDS011;21083;50.898;4.902;2023-11-21T02:21:25;42.97;;;19.23;;
20653;SDS011;21083;50.898;4.902;2023-11-21T02:23:55;52.47;;;21.08;;
20653;SDS011;21083;50.898;4.902;2023-11-21T02:26:22;64.28;;;21.38;;
20653;SDS011;21083;50.898;4.902;2023-11-21T02:28:50;53.47;;;21.45;;
20653;SDS011;21083;50.898;4.902;2023-11-21T02:31:18;56.13;;;21.15;;
20653;SDS011;21083;50.898;4.902;2023-11-21T02:33:46;46.60;;;19.20;;
20653;SDS011;21083;50.898;4.902;2023-11-21T02:36:12;48.00;;;19.35;;
20653;SDS011;21083;50.898;4.902;2023-11-21T02:38:39;55.08;;;20.92;;
20653;SDS011;21083;50.898;4.902;2023-11-21T02:41:08;51.53;;;21.23;;
20653;SDS011;21083;50.898;4.902;2023-11-21T02:43:34;42.00;;;20.13;;
20653;SDS011;21083;50.898;4.902;2023-11-21T02:46:03;41.10;;;18.80;;
20653;SDS011;21083;50.898;4.902;2023-11-21T02:48:31;112.68;;;20.45;;
20653;SDS011;21083;50.898;4.902;2023-11-21T02:50:57;62.97;;;18.02;;
20653;SDS011;21083;50.898;4.902;2023-11-21T02:53:24;53.30;;;19.08;;
20653;SDS011;21083;50.898;4.902;2023-11-21T02:55:51;50.45;;;17.70;;
20653;SDS011;21083;50.898;4.902;2023-11-21T02:58:19;48.65;;;19.42;;
20653;SDS011;21083;50.898;4.902;2023-11-21T03:00:46;45.25;;;18.75;;
20653;SDS011;21083;50.898;4.902;2023-11-21T03:03:13;41.35;;;18.63;;
20653;SDS011;21083;50.898;4.902;2023-11-21T03:05:40;61.42;;;19.45;;
20653;SDS011;21083;50.898;4.902;2023-11-21T03:08:07;42.95;;;17.33;;
20653;SDS011;21083;50.898;4.902;2023-11-21T03:10:35;51.33;;;19.55;;
20653;SDS011;21083;50.898;4.902;2023-11-21T03:13:02;47.75;;;18.98;;
20653;SDS011;21083;50.898;4.902;2023-11-21T03:15:31;43.35;;;18.58;;
20653;SDS011;21083;50.898;4.902;2023-11-21T03:17:57;44.63;;;18.13;;
20653;SDS011;21083;50.898;4.902;2023-11-21T03:20:24;39.28;;;17.17;;
20653;SDS011;21083;50.898;4.902;2023-11-21T03:22:51;46.72;;;18.45;;
20653;SDS011;21083;50.898;4.902;2023-11-21T03:25:18;48.25;;;20.00;;
20653;SDS011;21083;50.898;4.902;2023-11-21T03:27:45;51.13;;;19.00;;
20653;SDS011;21083;50.898;4.902;2023-11-21T03:30:12;60.50;;;20.30;;
20653;SDS011;21083;50.898;4.902;2023-11-21T03:32:40;56.58;;;20.45;;
20653;SDS011;21083;50.898;4.902;2023-11-21T03:35:07;51.60;;;19.58;;
20653;SDS011;21083;50.898;4.902;2023-11-21T03:37:34;52.85;;;20.58;;
20653;SDS011;21083;50.898;4.902;2023-11-21T03:40:03;66.03;;;20.70;;
20653;SDS011;21083;50.898;4.902;2023-11-21T03:42:33;91.65;;;23.80;;
20653;SDS011;21083;50.898;4.902;2023-11-21T03:45:00;48.60;;;19.33;;
20653;SDS011;21083;50.898;4.902;2023-11-21T03:47:28;65.43;;;20.55;;
20653;SDS011;21083;50.898;4.902;2023-11-21T03:49:56;42.28;;;17.48;;
20653;SDS011;21083;50.898;4.902;2023-11-21T03:52:23;49.33;;;18.38;;
20653;SDS011;21083;50.898;4.902;2023-11-21T03:54:50;48.20;;;17.75;;
20653;SDS011;21083;50.898;4.902;2023-11-21T03:57:17;36.00;;;16.48;;
20653;SDS011;21083;50.898;4.902;2023-11-21T03:59:44;47.10;;;18.55;;
20653;SDS011;21083;50.898;4.902;2023-11-21T04:02:11;43.28;;;17.27;;
20653;SDS011;21083;50.898;4.902;2023-11-21T04:04:38;45.47;;;17.95;;
20653;SDS011;21083;50.898;4.902;2023-11-21T04:07:07;45.72;;;19.05;;
20653;SDS011;21083;50.898;4.902;2023-11-21T04:09:34;44.38;;;18.10;;
20653;SDS011;21083;50.898;4.902;2023-11-21T04:12:01;40.78;;;18.20;;
20653;SDS011;21083;50.898;4.902;2023-11-21T04:14:28;44.78;;;18.20;;
20653;SDS011;21083;50.898;4.902;2023-11-21T04:16:55;44.08;;;18.58;;
20653;SDS011;21083;50.898;4.902;2023-11-21T04:19:22;43.65;;;18.45;;
20653;SDS011;21083;50.898;4.902;2023-11-21T04:21:49;52.05;;;19.73;;
20653;SDS011;21083;50.898;4.902;2023-11-21T04:24:17;38.22;;;16.77;;
20653;SDS011;21083;50.898;4.902;2023-11-21T04:26:44;46.95;;;17.83;;
20653;SDS011;21083;50.898;4.902;2023-11-21T04:29:11;53.33;;;20.40;;
20653;SDS011;21083;50.898;4.902;2023-11-21T04:31:38;45.58;;;17.95;;
20653;SDS011;21083;50.898;4.902;2023-11-21T04:34:06;62.22;;;20.00;;
20653;SDS011;21083;50.898;4.902;2023-11-21T04:36:33;46.85;;;18.63;;
20653;SDS011;21083;50.898;4.902;2023-11-21T04:39:00;56.75;;;19.80;;
20653;SDS011;21083;50.898;4.902;2023-11-21T04:41:28;44.03;;;18.95;;
20653;SDS011;21083;50.898;4.902;2023-11-21T04:43:56;43.42;;;17.27;;
20653;SDS011;21083;50.898;4.902;2023-11-21T04:46:23;39.85;;;17.50;;
20653;SDS011;21083;50.898;4.902;2023-11-21T04:48:50;44.65;;;18.25;;
20653;SDS011;21083;50.898;4.902;2023-11-21T04:51:17;37.83;;;17.33;;
20653;SDS011;21083;50.898;4.902;2023-11-21T04:53:44;39.58;;;16.48;;
20653;SDS011;21083;50.898;4.902;2023-11-21T04:56:11;45.83;;;18.35;;
20653;SDS011;21083;50.898;4.902;2023-11-21T04:58:39;36.97;;;16.95;;
20653;SDS011;21083;50.898;4.902;2023-11-21T05:01:06;43.03;;;18.08;;
20653;SDS011;21083;50.898;4.902;2023-11-21T05:03:33;41.08;;;17.40;;
20653;SDS011;21083;50.898;4.902;2023-11-21T05:06:01;39.10;;;16.58;;
20653;SDS011;21083;50.898;4.902;2023-11-21T05:08:27;42.17;;;16.90;;
20653;SDS011;21083;50.898;4.902;2023-11-21T05:10:54;36.90;;;16.58;;
20653;SDS011;21083;50.898;4.902;2023-11-21T05:13:21;47.63;;;19.08;;
20653;SDS011;21083;50.898;4.902;2023-11-21T05:15:53;34.58;;;15.93;;
20653;SDS011;21083;50.898;4.902;2023-11-21T05:18:20;41.30;;;17.50;;
20653;SDS011;21083;50.898;4.902;2023-11-21T05:20:48;40.83;;;17.75;;
20653;SDS011;21083;50.898;4.902;2023-11-21T05:23:15;41.38;;;17.00;;
20653;SDS011;21083;50.898;4.902;2023-11-21T05:25:42;36.13;;;15.95;;
20653;SDS011;21083;50.898;4.902;2023-11-21T05:28:09;41.55;;;16.30;;
20653;SDS011;21083;50.898;4.902;2023-11-21T05:30:36;39.08;;;15.85;;
20653;SDS011;21083;50.898;4.902;2023-11-21T05:33:05;38.75;;;15.73;;
20653;SDS011;21083;50.898;4.902;2023-11-21T05:35:32;40.85;;;16.65;;
20653;SDS011;21083;50.898;4.902;2023-11-21T05:37:59;33.55;;;14.32;;
20653;SDS011;21083;50.898;4.902;2023-11-21T05:40:26;39.25;;;16.13;;
20653;SDS011;21083;50.898;4.902;2023-11-21T05:42:55;39.35;;;16.15;;
20653;SDS011;21083;50.898;4.902;2023-11-21T05:45:22;37.22;;;16.27;;
20653;SDS011;21083;50.898;4.902;2023-11-21T05:47:49;40.85;;;18.10;;
20653;SDS011;21083;50.898;4.902;2023-11-21T05:50:17;44.17;;;18.02;;
20653;SDS011;21083;50.898;4.902;2023-11-21T05:52:44;43.28;;;16.30;;
20653;SDS011;21083;50.898;4.902;2023-11-21T05:55:12;31.15;;;13.93;;
20653;SDS011;21083;50.898;4.902;2023-11-21T05:57:40;35.60;;;14.48;;
20653;SDS011;21083;50.898;4.902;2023-11-21T06:00:08;48.45;;;18.63;;
20653;SDS011;21083;50.898;4.902;2023-11-21T06:02:40;39.40;;;18.00;;
20653;SDS011;21083;50.898;4.902;2023-11-21T06:05:08;44.25;;;19.13;;
20653;SDS011;21083;50.898;4.902;2023-11-21T06:07:37;45.03;;;18.98;;
20653;SDS011;21083;50.898;4.902;2023-11-21T06:10:05;40.78;;;17.63;;
20653;SDS011;21083;50.898;4.902;2023-11-21T06:12:36;53.05;;;19.20;;
20653;SDS011;21083;50.898;4.902;2023-11-21T06:15:03;41.92;;;17.35;;
20653;SDS011;21083;50.898;4.902;2023-11-21T06:17:33;61.60;;;20.60;;
20653;SDS011;21083;50.898;4.902;2023-11-21T06:20:01;50.17;;;18.70;;
20653;SDS011;21083;50.898;4.902;2023-11-21T06:22:34;44.80;;;19.13;;
20653;SDS011;21083;50.898;4.902;2023-11-21T06:25:02;61.00;;;20.77;;
20653;SDS011;21083;50.898;4.902;2023-11-21T06:27:31;52.58;;;20.42;;
20653;SDS011;21083;50.898;4.902;2023-11-21T06:29:58;52.10;;;20.75;;
20653;SDS011;21083;50.898;4.902;2023-11-21T06:32:25;53.55;;;20.33;;
20653;SDS011;21083;50.898;4.902;2023-11-21T06:34:54;51.53;;;19.90;;
20653;SDS011;21083;50.898;4.902;2023-11-21T06:37:24;52.38;;;20.35;;
20653;SDS011;21083;50.898;4.902;2023-11-21T06:39:51;46.20;;;21.25;;
20653;SDS011;21083;50.898;4.902;2023-11-21T06:42:20;40.45;;;17.83;;
20653;SDS011;21083;50.898;4.902;2023-11-21T06:44:47;49.67;;;18.48;;
20653;SDS011;21083;50.898;4.902;2023-11-21T06:47:16;64.05;;;20.77;;
20653;SDS011;21083;50.898;4.902;2023-11-21T06:49:45;49.95;;;19.60;;
20653;SDS011;21083;50.898;4.902;2023-11-21T06:52:14;58.05;;;21.00;;
20653;SDS011;21083;50.898;4.902;2023-11-21T06:54:40;58.10;;;19.90;;
20653;SDS011;21083;50.898;4.902;2023-11-21T06:57:07;49.47;;;18.70;;
20653;SDS011;21083;50.898;4.902;2023-11-21T06:59:36;55.55;;;20.20;;
20653;SDS011;21083;50.898;4.902;2023-11-21T07:02:03;45.20;;;18.50;;
20653;SDS011;21083;50.898;4.902;2023-11-21T07:04:31;43.08;;;17.20;;
20653;SDS011;21083;50.898;4.902;2023-11-21T07:06:58;46.25;;;18.70;;
20653;SDS011;21083;50.898;4.902;2023-11-21T07:09:26;57.00;;;19.95;;
20653;SDS011;21083;50.898;4.902;2023-11-21T07:11:52;43.58;;;18.20;;
20653;SDS011;21083;50.898;4.902;2023-11-21T07:14:20;52.17;;;18.75;;
20653;SDS011;21083;50.898;4.902;2023-11-21T07:16:48;39.00;;;16.60;;
20653;SDS011;21083;50.898;4.902;2023-11-21T07:19:16;41.67;;;17.17;;
20653;SDS011;21083;50.898;4.902;2023-11-21T07:21:43;50.58;;;18.08;;
20653;SDS011;21083;50.898;4.902;2023-11-21T07:24:10;41.30;;;17.20;;
20653;SDS011;21083;50.898;4.902;2023-11-21T07:26:37;36.88;;;16.13;;
20653;SDS011;21083;50.898;4.902;2023-11-21T07:29:04;40.85;;;17.48;;
20653;SDS011;21083;50.898;4.902;2023-11-21T07:31:31;40.72;;;16.10;;
20653;SDS011;21083;50.898;4.902;2023-11-21T07:34:00;38.03;;;16.35;;
20653;SDS011;21083;50.898;4.902;2023-11-21T07:36:27;45.28;;;17.13;;
20653;SDS011;21083;50.898;4.902;2023-11-21T07:38:54;45.47;;;17.35;;
20653;SDS011;21083;50.898;4.902;2023-11-21T07:41:21;48.47;;;18.02;;
20653;SDS011;21083;50.898;4.902;2023-11-21T07:43:48;46.13;;;17.58;;
20653;SDS011;21083;50.898;4.902;2023-11-21T07:46:15;54.90;;;20.17;;
20653;SDS011;21083;50.898;4.902;2023-11-21T07:48:42;49.00;;;19.80;;
20653;SDS011;21083;50.898;4.902;2023-11-21T07:51:12;48.40;;;18.77;;
20653;SDS011;21083;50.898;4.902;2023-11-21T07:53:39;73.57;;;20.92;;
20653;SDS011;21083;50.898;4.902;2023-11-21T07:56:07;47.15;;;19.00;;
20653;SDS011;21083;50.898;4.902;2023-11-21T07:58:34;44.35;;;18.33;;
20653;SDS011;21083;50.898;4.902;2023-11-21T08:01:01;50.13;;;18.80;;
20653;SDS011;21083;50.898;4.902;2023-11-21T08:03:29;46.75;;;19.23;;
20653;SDS011;21083;50.898;4.902;2023-11-21T08:05:56;51.08;;;20.45;;
20653;SDS011;21083;50.898;4.902;2023-11-21T08:08:25;45.45;;;18.90;;
20653;SDS011;21083;50.898;4.902;2023-11-21T08:10:52;55.80;;;20.48;;
20653;SDS011;21083;50.898;4.902;2023-11-21T08:13:22;50.85;;;18.55;;
20653;SDS011;21083;50.898;4.902;2023-11-21T08:15:49;46.25;;;19.23;;
20653;SDS011;21083;50.898;4.902;2023-11-21T08:18:17;55.60;;;20.60;;
20653;SDS011;21083;50.898;4.902;2023-11-21T08:20:44;50.60;;;19.13;;
20653;SDS011;21083;50.898;4.902;2023-11-21T08:23:13;48.05;;;19.55;;
20653;SDS011;21083;50.898;4.902;2023-11-21T08:25:43;57.10;;;20.23;;
20653;SDS011;21083;50.898;4.902;2023-11-21T08:28:10;52.97;;;19.70;;
20653;SDS011;21083;50.898;4.902;2023-11-21T08:30:37;62.72;;;22.20;;
20653;SDS011;21083;50.898;4.902;2023-11-21T08:33:04;55.00;;;19.23;;
20653;SDS011;21083;50.898;4.902;2023-11-21T08:35:32;54.85;;;20.65;;
20653;SDS011;21083;50.898;4.902;2023-11-21T08:37:58;61.45;;;21.02;;
20653;SDS011;21083;50.898;4.902;2023-11-21T08:40:26;54.10;;;19.85;;
20653;SDS011;21083;50.898;4.902;2023-11-21T08:42:54;49.22;;;19.23;;
20653;SDS011;21083;50.898;4.902;2023-11-21T08:45:24;48.40;;;18.75;;
20653;SDS011;21083;50.898;4.902;2023-11-21T08:47:51;54.25;;;20.48;;
20653;SDS011;21083;50.898;4.902;2023-11-21T08:50:19;54.47;;;21.65;;
20653;SDS011;21083;50.898;4.902;2023-11-21T08:52:46;54.47;;;20.13;;
20653;SDS011;21083;50.898;4.902;2023-11-21T08:55:13;56.13;;;20.00;;
20653;SDS011;21083;50.898;4.902;2023-11-21T08:57:41;54.67;;;21.13;;
20653;SDS011;21083;50.898;4.902;2023-11-21T09:00:12;49.20;;;19.45;;
20653;SDS011;21083;50.898;4.902;2023-11-21T09:02:42;57.30;;;21.13;;
20653;SDS011;21083;50.898;4.902;2023-11-21T09:05:09;58.03;;;20.67;;
20653;SDS011;21083;50.898;4.902;2023-11-21T09:07:37;58.53;;;21.02;;
20653;SDS011;21083;50.898;4.902;2023-11-21T09:10:06;54.13;;;19.77;;
20653;SDS011;21083;50.898;4.902;2023-11-21T09:12:34;59.67;;;19.50;;
20653;SDS011;21083;50.898;4.902;2023-11-21T09:15:02;57.47;;;20.67;;
20653;SDS011;21083;50.898;4.902;2023-11-21T09:17:32;53.70;;;20.30;;
20653;SDS011;21083;50.898;4.902;2023-11-21T09:20:00;46.35;;;19.00;;
20653;SDS011;21083;50.898;4.902;2023-11-21T09:22:28;64.43;;;20.95;;
20653;SDS011;21083;50.898;4.902;2023-11-21T09:24:56;50.45;;;20.40;;
20653;SDS011;21083;50.898;4.902;2023-11-21T09:27:23;55.95;;;21.63;;
20653;SDS011;21083;50.898;4.902;2023-11-21T09:29:51;52.60;;;19.70;;
20653;SDS011;21083;50.898;4.902;2023-11-21T09:32:19;48.42;;;20.33;;
20653;SDS011;21083;50.898;4.902;2023-11-21T09:34:48;51.90;;;19.52;;
20653;SDS011;21083;50.898;4.902;2023-11-21T09:37:15;50.80;;;19.38;;
20653;SDS011;21083;50.898;4.902;2023-11-21T09:39:42;46.72;;;19.42;;
20653;SDS011;21083;50.898;4.902;2023-11-21T09:42:10;53.22;;;18.58;;
20653;SDS011;21083;50.898;4.902;2023-11-21T09:44:43;47.50;;;19.63;;
20653;SDS011;21083;50.898;4.902;2023-11-21T09:47:14;58.42;;;20.90;;
20653;SDS011;21083;50.898;4.902;2023-11-21T09:49:42;60.10;;;20.63;;
20653;SDS011;21083;50.898;4.902;2023-11-21T09:52:18;61.53;;;21.02;;
20653;SDS011;21083;50.898;4.902;2023-11-21T09:54:50;56.15;;;20.90;;
20653;SDS011;21083;50.898;4.902;2023-11-21T09:57:19;57.83;;;20.73;;
20653;SDS011;21083;50.898;4.902;2023-11-21T09:59:48;57.13;;;21.02;;
20653;SDS011;21083;50.898;4.902;2023-11-21T10:02:20;50.47;;;20.83;;
20653;SDS011;21083;50.898;4.902;2023-11-21T10:04:51;54.22;;;21.70;;
20653;SDS011;21083;50.898;4.902;2023-11-21T10:07:20;52.08;;;20.95;;
20653;SDS011;21083;50.898;4.902;2023-11-21T10:09:48;55.03;;;21.27;;
20653;SDS011;21083;50.898;4.902;2023-11-21T10:12:19;54.80;;;21.38;;
20653;SDS011;21083;50.898;4.902;2023-11-21T10:14:47;52.70;;;21.15;;
20653;SDS011;21083;50.898;4.902;2023-11-21T10:17:16;58.83;;;21.10;;
20653;SDS011;21083;50.898;4.902;2023-11-21T10:19:45;56.67;;;21.40;;
20653;SDS011;21083;50.898;4.902;2023-11-21T10:22:13;57.33;;;21.02;;
20653;SDS011;21083;50.898;4.902;2023-11-21T10:24:43;63.83;;;21.80;;
20653;SDS011;21083;50.898;4.902;2023-11-21T10:27:09;50.50;;;20.95;;
20653;SDS011;21083;50.898;4.902;2023-11-21T10:29:38;55.60;;;21.58;;
20653;SDS011;21083;50.898;4.902;2023-11-21T10:32:07;53.95;;;21.88;;
20653;SDS011;21083;50.898;4.902;2023-11-21T10:34:35;54.22;;;22.83;;
20653;SDS011;21083;50.898;4.902;2023-11-21T10:37:10;52.53;;;20.67;;
20653;SDS011;21083;50.898;4.902;2023-11-21T10:39:38;55.40;;;21.45;;
20653;SDS011;21083;50.898;4.902;2023-11-21T10:42:09;55.20;;;21.10;;
20653;SDS011;21083;50.898;4.902;2023-11-21T10:44:36;53.75;;;21.23;;
20653;SDS011;21083;50.898;4.902;2023-11-21T10:47:03;59.25;;;22.60;;
20653;SDS011;21083;50.898;4.902;2023-11-21T10:49:30;56.83;;;22.65;;
20653;SDS011;21083;50.898;4.902;2023-11-21T10:51:57;60.67;;;23.60;;
20653;SDS011;21083;50.898;4.902;2023-11-21T10:54:25;61.67;;;24.10;;
20653;SDS011;21083;50.898;4.902;2023-11-21T10:56:53;69.55;;;24.00;;
20653;SDS011;21083;50.898;4.902;2023-11-21T10:59:25;71.65;;;24.63;;
20653;SDS011;21083;50.898;4.902;2023-11-21T11:01:54;67.10;;;24.35;;
20653;SDS011;21083;50.898;4.902;2023-11-21T11:04:26;62.40;;;21.92;;
20653;SDS011;21083;50.898;4.902;2023-11-21T11:06:54;59.33;;;23.23;;
20653;SDS011;21083;50.898;4.902;2023-11-21T11:09:23;68.15;;;23.77;;
20653;SDS011;21083;50.898;4.902;2023-11-21T11:11:50;55.28;;;22.42;;
20653;SDS011;21083;50.898;4.902;2023-11-21T11:14:19;66.57;;;23.17;;
20653;SDS011;21083;50.898;4.902;2023-11-21T11:16:52;59.88;;;22.15;;
20653;SDS011;21083;50.898;4.902;2023-11-21T11:19:21;62.10;;;23.15;;
20653;SDS011;21083;50.898;4.902;2023-11-21T11:21:50;56.55;;;22.10;;
20653;SDS011;21083;50.898;4.902;2023-11-21T11:27:30;51.78;;;20.45;;
20653;SDS011;21083;50.898;4.902;2023-11-21T11:30:09;47.38;;;19.80;;
20653;SDS011;21083;50.898;4.902;2023-11-21T11:32:47;52.38;;;20.75;;
20653;SDS011;21083;50.898;4.902;2023-11-21T11:35:23;48.33;;;19.13;;
20653;SDS011;21083;50.898;4.902;2023-11-21T11:37:56;50.13;;;19.00;;
20653;SDS011;21083;50.898;4.902;2023-11-21T11:40:24;56.00;;;19.83;;
20653;SDS011;21083;50.898;4.902;2023-11-21T11:43:05;50.90;;;20.45;;
20653;SDS011;21083;50.898;4.902;2023-11-21T11:45:33;47.58;;;20.20;;
20653;SDS011;21083;50.898;4.902;2023-11-21T11:48:05;47.17;;;18.02;;
20653;SDS011;21083;50.898;4.902;2023-11-21T11:50:32;51.95;;;19.85;;
20653;SDS011;21083;50.898;4.902;2023-11-21T11:53:11;53.50;;;20.67;;
20653;SDS011;21083;50.898;4.902;2023-11-21T11:55:39;44.10;;;19.15;;
20653;SDS011;21083;50.898;4.902;2023-11-21T11:58:06;55.92;;;20.75;;
20653;SDS011;21083;50.898;4.902;2023-11-21T12:00:34;43.85;;;18.60;;
20653;SDS011;21083;50.898;4.902;2023-11-21T12:03:06;46.53;;;19.48;;
20653;SDS011;21083;50.898;4.902;2023-11-21T12:05:35;42.92;;;18.45;;
20653;SDS011;21083;50.898;4.902;2023-11-21T12:08:04;36.15;;;17.58;;
20653;SDS011;21083;50.898;4.902;2023-11-21T12:10:33;39.85;;;16.73;;
20653;SDS011;21083;50.898;4.902;2023-11-21T12:13:01;44.53;;;17.52;;
20653;SDS011;21083;50.898;4.902;2023-11-21T12:15:30;38.10;;;17.38;;
20653;SDS011;21083;50.898;4.902;2023-11-21T12:17:57;35.08;;;16.42;;
20653;SDS011;21083;50.898;4.902;2023-11-21T12:20:26;35.78;;;16.77;;
20653;SDS011;21083;50.898;4.902;2023-11-21T12:22:54;33.28;;;16.48;;
20653;SDS011;21083;50.898;4.902;2023-11-21T12:25:22;32.78;;;16.65;;
20653;SDS011;21083;50.898;4.902;2023-11-21T12:27:52;39.92;;;16.70;;
20653;SDS011;21083;50.898;4.902;2023-11-21T12:30:20;35.92;;;15.40;;
20653;SDS011;21083;50.898;4.902;2023-11-21T12:32:48;34.05;;;14.55;;
20653;SDS011;21083;50.898;4.902;2023-11-21T12:35:17;30.83;;;14.50;;
20653;SDS011;21083;50.898;4.902;2023-11-21T12:37:47;34.88;;;15.20;;
20653;SDS011;21083;50.898;4.902;2023-11-21T12:40:15;33.65;;;15.52;;
20653;SDS011;21083;50.898;4.902;2023-11-21T12:42:43;34.38;;;14.88;;
20653;SDS011;21083;50.898;4.902;2023-11-21T12:45:18;28.75;;;13.80;;
20653;SDS011;21083;50.898;4.902;2023-11-21T12:47:47;30.05;;;14.35;;
20653;SDS011;21083;50.898;4.902;2023-11-21T12:50:15;30.73;;;14.93;;
20653;SDS011;21083;50.898;4.902;2023-11-21T12:52:48;31.98;;;14.55;;
20653;SDS011;21083;50.898;4.902;2023-11-21T12:55:17;28.73;;;13.80;;
20653;SDS011;21083;50.898;4.902;2023-11-21T12:57:47;30.02;;;14.40;;
20653;SDS011;21083;50.898;4.902;2023-11-21T13:00:16;28.80;;;13.57;;
20653;SDS011;21083;50.898;4.902;2023-11-21T13:02:53;31.85;;;13.73;;
20653;SDS011;21083;50.898;4.902;2023-11-21T13:05:25;25.80;;;12.23;;
20653;SDS011;21083;50.898;4.902;2023-11-21T13:07:55;24.45;;;11.63;;
20653;SDS011;21083;50.898;4.902;2023-11-21T13:10:23;22.15;;;11.07;;
20653;SDS011;21083;50.898;4.902;2023-11-21T13:12:54;20.25;;;10.45;;
20653;SDS011;21083;50.898;4.902;2023-11-21T13:15:23;20.17;;;9.85;;
20653;SDS011;21083;50.898;4.902;2023-11-21T13:17:50;20.25;;;9.68;;
20653;SDS011;21083;50.898;4.902;2023-11-21T13:20:18;24.25;;;10.75;;
20653;SDS011;21083;50.898;4.902;2023-11-21T13:22:46;21.55;;;8.63;;
20653;SDS011;21083;50.898;4.902;2023-11-21T13:25:16;15.70;;;7.38;;
20653;SDS011;21083;50.898;4.902;2023-11-21T13:27:44;14.50;;;7.22;;
20653;SDS011;21083;50.898;4.902;2023-11-21T13:30:12;17.13;;;8.02;;
20653;SDS011;21083;50.898;4.902;2023-11-21T13:32:48;17.40;;;8.30;;
20653;SDS011;21083;50.898;4.902;2023-11-21T13:35:16;17.15;;;7.30;;
20653;SDS011;21083;50.898;4.902;2023-11-21T13:37:47;16.08;;;7.55;;
20653;SDS011;21083;50.898;4.902;2023-11-21T13:40:21;20.17;;;8.18;;
20653;SDS011;21083;50.898;4.902;2023-11-21T13:42:51;15.85;;;7.40;;
20653;SDS011;21083;50.898;4.902;2023-11-21T13:45:24;15.70;;;6.93;;
20653;SDS011;21083;50.898;4.902;2023-11-21T13:47:53;15.40;;;6.63;;
20653;SDS011;21083;50.898;4.902;2023-11-21T13:50:23;15.60;;;7.03;;
20653;SDS011;21083;50.898;4.902;2023-11-21T13:52:54;14.85;;;6.75;;
20653;SDS011;21083;50.898;4.902;2023-11-21T13:55:22;16.63;;;6.82;;
20653;SDS011;21083;50.898;4.902;2023-11-21T13:57:50;16.77;;;6.68;;
20653;SDS011;21083;50.898;4.902;2023-11-21T14:00:18;16.05;;;6.15;;
20653;SDS011;21083;50.898;4.902;2023-11-21T14:03:02;13.77;;;6.07;;
20653;SDS011;21083;50.898;4.902;2023-11-21T14:05:33;16.08;;;6.68;;
20653;SDS011;21083;50.898;4.902;2023-11-21T14:08:00;12.63;;;5.65;;
20653;SDS011;21083;50.898;4.902;2023-11-21T14:10:31;16.80;;;5.72;;
20653;SDS011;21083;50.898;4.902;2023-11-21T14:13:05;13.18;;;5.82;;
20653;SDS011;21083;50.898;4.902;2023-11-21T14:15:32;14.02;;;5.95;;
20653;SDS011;21083;50.898;4.902;2023-11-21T14:18:03;13.25;;;6.00;;
20653;SDS011;21083;50.898;4.902;2023-11-21T14:20:32;16.63;;;6.95;;
20653;SDS011;21083;50.898;4.902;2023-11-21T14:23:01;12.45;;;5.88;;
20653;SDS011;21083;50.898;4.902;2023-11-21T14:25:29;15.73;;;5.93;;
20653;SDS011;21083;50.898;4.902;2023-11-21T14:27:58;13.65;;;5.45;;
20653;SDS011;21083;50.898;4.902;2023-11-21T14:30:25;18.85;;;6.70;;
20653;SDS011;21083;50.898;4.902;2023-11-21T14:32:54;14.38;;;6.07;;